Time;durP1;ratioP1;P1;durP2;ratioP2;P2;SDS_P1;SDS_P2;PMS_P1;PMS_P2;Temp;Humidity;BMP_temperature;BMP_pressure;BME280_temperature;BME280_humidity;BME280_pressure;Samples;Min_cycle;Max_cycle;Signal;HPM_P1;HPM_P2
2022/11/30 00:01:23;;;;;;;19.20;4.97;;;21.90;51.10;;;;;;5055145;28;20199;-70
2022/11/30 00:03:56;;;;;;;18.03;5.30;;;21.80;50.00;;;;;;5041573;28;20172;-70
2022/11/30 00:06:24;;;;;;;16.83;4.87;;;21.50;51.20;;;;;;5038873;28;20176;-71
2022/11/30 00:08:58;;;;;;;23.20;3.90;;;21.70;50.70;;;;;;5034749;28;20191;-70
2022/11/30 00:11:27;;;;;;;18.90;5.17;;;21.80;50.70;;;;;;5039769;28;20187;-71
2022/11/30 00:13:55;;;;;;;16.60;5.37;;;21.80;50.60;;;;;;5033815;28;20662;-71
2022/11/30 00:16:22;;;;;;;19.67;3.63;;;21.90;50.00;;;;;;5036920;28;20207;-70
2022/11/30 00:18:50;;;;;;;19.43;3.70;;;21.80;50.30;;;;;;5050340;28;20267;-71
2022/11/30 00:21:18;;;;;;;17.60;3.47;;;21.90;50.10;;;;;;5051741;28;20200;-70
2022/11/30 00:23:47;;;;;;;16.40;3.20;;;21.80;50.30;;;;;;5035115;28;20172;-69
2022/11/30 00:26:16;;;;;;;21.10;4.20;;;22.10;50.30;;;;;;5034534;28;20230;-71
2022/11/30 00:28:45;;;;;;;14.67;3.37;;;22.40;49.20;;;;;;5048794;28;20172;-71
2022/11/30 00:31:14;;;;;;;18.63;3.93;;;22.30;49.50;;;;;;5034687;28;20192;-71
2022/11/30 00:33:42;;;;;;;12.03;3.80;;;22.30;49.50;;;;;;5034940;28;20272;-72
2022/11/30 00:36:13;;;;;;;19.40;3.60;;;22.20;50.10;;;;;;5034730;28;20532;-70
2022/11/30 00:38:40;;;;;;;17.27;3.70;;;22.20;50.30;;;;;;5035013;28;20180;-70
2022/11/30 00:41:07;;;;;;;13.70;3.33;;;22.30;50.10;;;;;;5034396;28;20323;-70
2022/11/30 00:43:35;;;;;;;18.80;3.60;;;22.20;50.90;;;;;;5037329;28;20184;-71
2022/11/30 00:46:02;;;;;;;18.60;4.03;;;22.10;50.80;;;;;;5034792;28;20222;-70
2022/11/30 00:48:30;;;;;;;12.10;3.40;;;22.00;51.60;;;;;;5034389;28;20240;-70
2022/11/30 00:50:57;;;;;;;15.30;3.67;;;21.90;51.60;;;;;;5034819;28;20689;-70
2022/11/30 00:53:25;;;;;;;18.60;4.07;;;21.80;52.00;;;;;;5034459;28;20256;-69
2022/11/30 00:55:52;;;;;;;11.37;2.97;;;21.80;52.30;;;;;;5044227;28;20660;-70
2022/11/30 00:58:20;;;;;;;18.53;3.80;;;21.60;52.50;;;;;;5049291;28;20259;-70
2022/11/30 01:00:47;;;;;;;17.77;4.00;;;21.40;52.90;;;;;;5047378;28;20541;-70
2022/11/30 01:03:15;;;;;;;22.70;3.67;;;21.40;53.60;;;;;;5034066;28;20193;-71
2022/11/30 01:05:42;;;;;;;16.33;3.70;;;21.20;53.90;;;;;;5045624;28;20184;-69
2022/11/30 01:08:12;;;;;;;13.93;3.73;;;21.20;54.30;;;;;;5038889;28;20189;-71
2022/11/30 01:10:42;;;;;;;21.77;3.67;;;21.30;54.30;;;;;;5033881;28;20188;-71
2022/11/30 01:13:10;;;;;;;20.40;3.83;;;21.30;53.80;;;;;;5043353;28;20631;-71
2022/11/30 01:15:40;;;;;;;13.27;3.77;;;21.50;53.70;;;;;;5037655;28;20554;-70
2022/11/30 01:18:08;;;;;;;15.30;3.97;;;21.80;53.00;;;;;;5033925;28;20168;-70
2022/11/30 01:20:39;;;;;;;13.53;3.33;;;21.80;52.70;;;;;;5033911;28;20199;-71
2022/11/30 01:23:06;;;;;;;16.33;3.83;;;21.90;52.50;;;;;;5033593;28;20185;-70
2022/11/30 01:25:33;;;;;;;16.63;3.70;;;22.20;52.40;;;;;;5035102;28;20726;-70
2022/11/30 01:28:01;;;;;;;17.20;4.10;;;22.00;52.20;;;;;;5039170;28;20541;-70
2022/11/30 01:30:28;;;;;;;15.53;3.73;;;22.00;52.40;;;;;;5033813;28;20647;-70
2022/11/30 01:32:55;;;;;;;15.87;3.90;;;21.90;53.10;;;;;;5033391;28;20626;-70
2022/11/30 01:35:23;;;;;;;19.30;4.37;;;21.90;53.20;;;;;;5033515;28;20200;-71
2022/11/30 01:37:50;;;;;;;17.40;3.90;;;22.20;52.70;;;;;;5046989;28;20253;-72
2022/11/30 01:40:17;;;;;;;16.10;3.90;;;22.00;53.20;;;;;;5043993;28;20242;-71
2022/11/30 01:42:48;;;;;;;16.37;4.17;;;22.00;53.50;;;;;;5033591;28;20216;-70
2022/11/30 01:45:15;;;;;;;14.00;3.77;;;22.30;52.60;;;;;;5037175;28;20661;-71
2022/11/30 01:47:48;;;;;;;16.90;3.67;;;22.20;52.50;;;;;;5047014;28;20277;-73
2022/11/30 01:50:29;;;;;;;15.53;3.80;;;22.40;52.10;;;;;;5042062;28;20183;-71
2022/11/30 01:52:58;;;;;;;19.00;4.30;;;22.50;52.10;;;;;;5033174;28;20268;-71
2022/11/30 01:55:42;;;;;;;14.27;3.60;;;22.50;52.00;;;;;;5045634;28;20205;-71
2022/11/30 01:58:17;;;;;;;18.97;3.93;;;22.60;51.50;;;;;;5038441;28;20180;-72
2022/11/30 02:00:47;;;;;;;19.43;3.73;;;23.10;50.70;;;;;;5034038;28;20230;-70
2022/11/30 02:03:30;;;;;;;13.97;3.90;;;23.50;49.90;;;;;;5032652;28;20638;-72
2022/11/30 02:05:58;;;;;;;18.63;4.20;;;23.80;48.30;;;;;;5032187;28;20235;-71
2022/11/30 02:08:26;;;;;;;14.63;3.30;;;23.40;49.70;;;;;;5033204;28;20203;-71
2022/11/30 02:10:58;;;;;;;14.93;3.60;;;23.20;49.60;;;;;;5047557;28;20204;-72
2022/11/30 02:13:28;;;;;;;16.67;4.20;;;23.30;49.20;;;;;;5049864;28;20172;-71
2022/11/30 02:16:02;;;;;;;13.50;3.93;;;23.60;48.90;;;;;;5032776;28;20295;-72
2022/11/30 02:18:47;;;;;;;12.60;3.80;;;23.80;48.90;;;;;;5035692;28;20172;-72
2022/11/30 02:21:21;;;;;;;15.43;3.57;;;23.70;48.20;;;;;;5052333;28;20317;-71
2022/11/30 02:24:07;;;;;;;18.10;4.40;;;23.30;49.10;;;;;;5048215;28;20175;-72
2022/11/30 02:26:48;;;;;;;16.70;3.67;;;23.30;49.40;;;;;;5042378;28;20264;-71
2022/11/30 02:29:28;;;;;;;16.83;3.77;;;23.10;50.50;;;;;;5034514;28;20179;-71
2022/11/30 02:32:05;;;;;;;17.40;3.83;;;22.80;50.70;;;;;;5032640;28;20599;-71
2022/11/30 02:34:35;;;;;;;13.73;3.70;;;22.00;52.10;;;;;;5033356;28;20535;-70
2022/11/30 02:37:05;;;;;;;19.90;3.63;;;22.30;52.10;;;;;;5031890;28;20177;-72
2022/11/30 02:39:33;;;;;;;16.40;4.20;;;22.50;51.30;;;;;;5032609;28;20204;-71
2022/11/30 02:42:00;;;;;;;16.03;3.60;;;22.50;51.80;;;;;;5033336;28;20561;-72
2022/11/30 02:44:29;;;;;;;18.10;4.07;;;23.00;50.30;;;;;;5047266;28;20195;-71
2022/11/30 02:47:01;;;;;;;13.23;3.30;;;23.30;49.50;;;;;;5038600;28;20208;-71
2022/11/30 02:49:32;;;;;;;15.70;3.50;;;23.40;47.90;;;;;;5039143;28;20264;-72
2022/11/30 02:52:02;;;;;;;17.53;3.67;;;23.30;48.90;;;;;;5052236;28;20716;-71
2022/11/30 02:54:29;;;;;;;16.43;3.80;;;23.50;48.30;;;;;;5037310;28;20624;-71
2022/11/30 02:56:57;;;;;;;14.60;3.33;;;23.20;49.40;;;;;;5047231;28;20180;-73
2022/11/30 02:59:25;;;;;;;14.63;3.73;;;23.10;49.50;;;;;;5034680;28;20184;-71
2022/11/30 03:01:52;;;;;;;15.67;3.33;;;22.90;49.70;;;;;;5047888;28;20203;-71
2022/11/30 03:04:19;;;;;;;16.47;3.50;;;22.90;48.80;;;;;;5044902;28;20175;-71
2022/11/30 03:06:47;;;;;;;12.60;3.47;;;22.90;50.10;;;;;;5035840;28;20213;-70
2022/11/30 03:09:14;;;;;;;17.90;3.40;;;22.80;50.30;;;;;;5039913;28;20176;-72
2022/11/30 03:11:41;;;;;;;16.23;3.97;;;22.30;50.60;;;;;;5048529;28;20585;-72
2022/11/30 03:14:09;;;;;;;15.63;4.20;;;22.20;51.60;;;;;;5050124;28;20682;-70
2022/11/30 03:16:37;;;;;;;14.83;3.47;;;22.30;51.20;;;;;;5049681;28;20171;-71
2022/11/30 03:19:05;;;;;;;14.43;3.73;;;22.20;51.50;;;;;;5048411;28;20173;-70
2022/11/30 03:21:33;;;;;;;13.20;3.50;;;22.00;52.00;;;;;;5053016;28;20195;-70
2022/11/30 03:24:00;;;;;;;22.30;3.93;;;22.00;52.60;;;;;;5053587;28;20541;-71
2022/11/30 03:26:27;;;;;;;25.77;4.63;;;22.00;52.70;;;;;;5041301;28;20195;-70
2022/11/30 03:28:55;;;;;;;18.67;3.53;;;21.80;53.10;;;;;;5050635;28;20539;-70
2022/11/30 03:31:22;;;;;;;16.93;3.50;;;22.10;53.00;;;;;;5054782;28;20207;-71
2022/11/30 03:33:49;;;;;;;19.53;3.77;;;21.90;53.20;;;;;;5040903;28;20219;-71
2022/11/30 03:36:17;;;;;;;17.43;3.70;;;21.80;53.60;;;;;;5038934;28;20600;-70
2022/11/30 03:38:46;;;;;;;14.53;3.30;;;21.70;53.60;;;;;;5046133;28;20180;-72
2022/11/30 03:41:16;;;;;;;15.93;3.77;;;21.80;53.50;;;;;;5036146;28;20262;-71
2022/11/30 03:43:44;;;;;;;18.87;3.90;;;21.90;53.00;;;;;;5036051;28;20188;-69
2022/11/30 03:46:14;;;;;;;12.57;3.10;;;21.80;53.40;;;;;;5046578;28;20189;-70
2022/11/30 03:48:41;;;;;;;17.47;2.93;;;21.80;53.50;;;;;;5053953;28;20293;-71
2022/11/30 03:51:10;;;;;;;24.97;4.23;;;21.90;53.00;;;;;;5048298;28;20169;-70
2022/11/30 03:53:38;;;;;;;16.30;3.47;;;21.80;52.90;;;;;;5042322;28;20205;-72
2022/11/30 03:56:10;;;;;;;15.27;3.33;;;21.80;52.80;;;;;;5053940;28;20688;-71
2022/11/30 03:58:38;;;;;;;16.20;4.03;;;21.70;52.90;;;;;;5046642;28;20191;-71
2022/11/30 04:01:08;;;;;;;16.67;3.70;;;21.80;53.10;;;;;;5047700;28;20204;-70
2022/11/30 04:03:36;;;;;;;19.30;3.37;;;21.80;53.10;;;;;;5039940;28;20249;-71
2022/11/30 04:06:05;;;;;;;17.57;3.17;;;21.80;52.50;;;;;;5047674;28;20188;-70
2022/11/30 04:08:33;;;;;;;18.23;3.07;;;21.80;52.30;;;;;;5045574;28;20275;-70
2022/11/30 04:11:01;;;;;;;18.30;3.40;;;22.00;52.50;;;;;;5051730;28;20196;-71
2022/11/30 04:13:30;;;;;;;12.53;3.00;;;21.70;52.00;;;;;;5041108;28;20639;-70
2022/11/30 04:15:57;;;;;;;15.27;3.13;;;21.60;52.10;;;;;;5042835;28;20238;-69
2022/11/30 04:18:26;;;;;;;13.00;3.40;;;21.80;51.50;;;;;;5035935;28;20188;-71
2022/11/30 04:20:56;;;;;;;15.07;3.40;;;21.90;51.10;;;;;;5044551;28;20188;-72
2022/11/30 04:23:26;;;;;;;11.37;2.67;;;21.80;51.10;;;;;;5042026;28;20665;-71
2022/11/30 04:25:53;;;;;;;13.13;2.83;;;22.20;50.10;;;;;;5034802;28;20246;-71
2022/11/30 04:28:20;;;;;;;11.77;3.63;;;21.80;50.50;;;;;;5038942;28;20278;-70
2022/11/30 04:30:48;;;;;;;13.60;3.20;;;21.80;50.10;;;;;;5050866;28;20384;-72
2022/11/30 04:33:16;;;;;;;14.50;3.03;;;21.90;50.40;;;;;;5041135;28;20181;-71
2022/11/30 04:35:50;;;;;;;19.33;3.50;;;22.00;50.50;;;;;;5034443;28;20188;-71
2022/11/30 04:38:17;;;;;;;13.97;3.13;;;22.20;50.10;;;;;;5043140;28;20666;-71
2022/11/30 04:40:44;;;;;;;13.07;2.73;;;22.10;50.20;;;;;;5047267;28;20164;-71
2022/11/30 04:43:12;;;;;;;12.33;2.87;;;21.60;49.00;;;;;;5041655;28;20266;-71
2022/11/30 04:45:40;;;;;;;12.00;3.03;;;21.60;50.30;;;;;;5046656;28;20262;-68
2022/11/30 04:48:08;;;;;;;11.47;2.73;;;21.80;50.40;;;;;;5046500;28;20234;-68
2022/11/30 04:50:36;;;;;;;15.70;3.90;;;21.80;50.50;;;;;;5036903;28;20654;-68
2022/11/30 04:53:03;;;;;;;10.33;3.13;;;21.80;50.60;;;;;;5034445;28;20186;-68
2022/11/30 04:55:31;;;;;;;13.00;3.10;;;21.80;51.30;;;;;;5033552;28;20184;-70
2022/11/30 04:57:58;;;;;;;11.43;3.50;;;21.70;51.30;;;;;;5034379;28;20204;-71
2022/11/30 05:00:26;;;;;;;12.20;3.33;;;21.80;51.00;;;;;;5043820;28;20650;-71
2022/11/30 05:02:55;;;;;;;10.90;3.00;;;21.70;50.90;;;;;;5042063;28;20204;-71
2022/11/30 05:05:23;;;;;;;14.27;2.87;;;21.80;50.10;;;;;;5045760;28;20180;-71
2022/11/30 05:07:56;;;;;;;13.57;3.40;;;21.80;50.10;;;;;;5040132;28;20181;-71
2022/11/30 05:10:24;;;;;;;16.23;3.50;;;21.60;51.00;;;;;;5034003;28;20196;-70
2022/11/30 05:12:51;;;;;;;9.00;2.50;;;21.80;51.40;;;;;;5045240;28;20267;-71
2022/11/30 05:15:19;;;;;;;10.20;2.77;;;21.90;49.00;;;;;;5033100;28;20297;-69
2022/11/30 05:17:46;;;;;;;10.47;3.10;;;21.80;48.40;;;;;;5034034;28;20181;-69
2022/11/30 05:20:14;;;;;;;11.90;2.77;;;21.50;50.10;;;;;;5063311;28;20191;-69
2022/11/30 05:22:42;;;;;;;13.30;3.23;;;21.30;50.10;;;;;;5054862;28;20212;-68
2022/11/30 05:25:10;;;;;;;15.93;3.73;;;21.20;50.00;;;;;;5046211;28;20181;-69
2022/11/30 05:27:37;;;;;;;10.87;3.07;;;21.00;51.40;;;;;;5043596;28;20206;-69
2022/11/30 05:30:06;;;;;;;15.57;3.03;;;21.30;51.70;;;;;;5043555;28;20184;-69
2022/11/30 05:32:33;;;;;;;13.63;2.77;;;21.30;51.00;;;;;;5044204;28;20184;-67
2022/11/30 05:35:00;;;;;;;15.33;3.00;;;21.20;50.60;;;;;;5041346;28;20554;-68
2022/11/30 05:37:28;;;;;;;13.77;3.00;;;21.10;49.40;;;;;;5053104;28;20203;-69
2022/11/30 05:39:55;;;;;;;9.30;2.57;;;21.00;51.00;;;;;;5047501;28;20194;-69
2022/11/30 05:42:23;;;;;;;13.23;3.43;;;20.90;51.70;;;;;;5044639;28;20216;-69
2022/11/30 05:44:50;;;;;;;11.33;2.90;;;20.80;51.30;;;;;;5041355;28;20177;-68
2022/11/30 05:47:17;;;;;;;15.40;3.23;;;20.90;51.30;;;;;;5040118;28;20725;-70
2022/11/30 05:49:45;;;;;;;15.03;3.30;;;20.80;51.90;;;;;;5041966;28;20191;-69
2022/11/30 05:52:12;;;;;;;11.20;3.40;;;20.70;53.10;;;;;;5051275;28;20183;-68
2022/11/30 05:54:39;;;;;;;10.00;2.83;;;20.70;53.10;;;;;;5045856;28;20177;-69
2022/11/30 05:57:07;;;;;;;13.17;3.00;;;20.80;53.60;;;;;;5033386;28;20189;-69
2022/11/30 05:59:34;;;;;;;17.43;3.67;;;21.00;53.30;;;;;;5049294;28;20266;-69
2022/11/30 06:02:01;;;;;;;19.07;4.00;;;21.00;53.60;;;;;;5045531;28;20208;-69
2022/11/30 06:04:29;;;;;;;10.87;3.57;;;21.20;53.30;;;;;;5050796;28;20176;-69
2022/11/30 06:06:56;;;;;;;17.60;3.30;;;21.50;52.60;;;;;;5048985;28;20259;-70
2022/11/30 06:09:24;;;;;;;15.87;3.13;;;21.50;52.80;;;;;;5051843;28;20192;-71
2022/11/30 06:11:51;;;;;;;10.47;2.80;;;21.50;52.50;;;;;;5045913;28;20258;-70
2022/11/30 06:14:18;;;;;;;16.80;3.70;;;21.20;54.00;;;;;;5045379;28;20190;-69
2022/11/30 06:16:46;;;;;;;15.10;3.20;;;21.30;54.60;;;;;;5050004;28;20195;-70
2022/11/30 06:19:13;;;;;;;11.67;2.47;;;21.30;54.20;;;;;;5047954;28;20183;-70
2022/11/30 06:21:40;;;;;;;13.13;3.50;;;21.30;53.60;;;;;;5046680;28;20728;-69
2022/11/30 06:24:09;;;;;;;14.83;3.13;;;21.30;53.50;;;;;;5050839;28;20221;-69
2022/11/30 06:26:36;;;;;;;12.97;3.60;;;21.70;52.60;;;;;;5049006;28;20186;-69
2022/11/30 06:29:03;;;;;;;17.27;3.60;;;22.50;51.10;;;;;;5051213;28;20172;-70
2022/11/30 06:31:31;;;;;;;13.80;3.33;;;23.40;49.00;;;;;;5045448;28;20534;-69
2022/11/30 06:33:59;;;;;;;9.43;2.67;;;24.10;46.40;;;;;;5046897;28;20184;-68
2022/11/30 06:36:27;;;;;;;13.13;3.20;;;24.40;46.00;;;;;;5046090;28;20592;-70
2022/11/30 06:38:55;;;;;;;10.07;2.60;;;24.40;45.50;;;;;;5043052;28;20259;-68
2022/11/30 06:41:23;;;;;;;10.67;2.77;;;24.30;46.30;;;;;;5045012;28;20208;-68
2022/11/30 06:43:50;;;;;;;15.47;3.33;;;23.90;48.00;;;;;;5045245;28;20192;-69
2022/11/30 06:46:17;;;;;;;11.77;3.17;;;23.40;48.60;;;;;;5049885;28;20192;-70
2022/11/30 06:48:49;;;;;;;12.37;2.97;;;23.00;49.70;;;;;;5043773;28;20760;-69
2022/11/30 06:51:17;;;;;;;13.40;2.97;;;22.60;50.80;;;;;;5047009;28;20241;-70
2022/11/30 06:53:46;;;;;;;16.43;3.50;;;22.30;51.60;;;;;;5048868;28;20208;-70
2022/11/30 06:56:13;;;;;;;12.73;3.07;;;23.30;49.50;;;;;;5042429;28;20185;-70
2022/11/30 06:58:41;;;;;;;11.90;3.37;;;23.80;48.20;;;;;;5044090;28;20606;-69
2022/11/30 07:01:11;;;;;;;14.10;3.43;;;23.80;48.00;;;;;;5048445;28;20298;-72
2022/11/30 07:03:39;;;;;;;13.17;3.40;;;23.60;48.50;;;;;;5049524;28;20202;-70
2022/11/30 07:06:11;;;;;;;11.90;2.87;;;23.90;48.00;;;;;;5042218;28;20626;-70
2022/11/30 07:08:39;;;;;;;9.43;3.30;;;23.40;48.70;;;;;;5046559;28;20183;-69
2022/11/30 07:11:08;;;;;;;15.10;4.17;;;23.30;49.50;;;;;;5040753;28;20192;-69
2022/11/30 07:13:36;;;;;;;13.73;3.90;;;23.30;50.00;;;;;;5046376;28;20187;-70
2022/11/30 07:16:05;;;;;;;10.40;3.17;;;22.80;50.30;;;;;;5043915;28;20537;-70
2022/11/30 07:18:33;;;;;;;13.00;3.07;;;22.20;51.70;;;;;;5034823;28;20184;-69
2022/11/30 07:21:02;;;;;;;11.00;3.37;;;21.90;53.30;;;;;;5059077;28;20195;-68
2022/11/30 07:26:15;;;;;;;16.53;3.33;;;20.80;55.90;;;;;;5035001;28;20671;-69
2022/11/30 07:28:49;;;;;;;18.63;3.43;;;20.80;56.70;;;;;;5045185;28;20180;-69
2022/11/30 07:31:24;;;;;;;12.57;3.30;;;20.40;57.00;;;;;;5051962;28;20267;-67
2022/11/30 07:33:52;;;;;;;15.33;4.30;;;20.30;57.50;;;;;;5049609;28;20184;-68
2022/11/30 07:36:23;;;;;;;15.77;4.17;;;20.50;57.40;;;;;;5050750;28;20180;-69
2022/11/30 07:38:50;;;;;;;20.70;3.87;;;20.50;57.50;;;;;;5044053;28;20223;-69
2022/11/30 07:41:18;;;;;;;16.40;4.00;;;20.30;58.00;;;;;;5032410;28;20285;-69
2022/11/30 07:43:45;;;;;;;20.00;3.37;;;20.20;58.90;;;;;;5044399;28;20666;-69
2022/11/30 07:46:14;;;;;;;15.67;3.80;;;20.00;59.20;;;;;;5036040;28;20189;-68
2022/11/30 07:48:43;;;;;;;14.43;3.80;;;19.90;59.70;;;;;;5032153;28;20318;-70
2022/11/30 07:51:21;;;;;;;15.53;3.53;;;19.80;59.90;;;;;;5033999;28;20207;-70
2022/11/30 07:53:49;;;;;;;13.00;3.30;;;19.70;60.40;;;;;;5039497;28;20622;-68
2022/11/30 07:56:20;;;;;;;14.83;3.57;;;19.60;60.80;;;;;;5035645;28;20259;-69
2022/11/30 07:58:50;;;;;;;16.83;3.40;;;19.70;60.90;;;;;;5033435;28;20187;-67
2022/11/30 08:01:22;;;;;;;18.77;4.10;;;19.70;60.80;;;;;;5042370;28;20208;-69
2022/11/30 08:03:51;;;;;;;14.27;3.77;;;19.60;61.10;;;;;;5046229;28;20176;-69
2022/11/30 08:06:21;;;;;;;13.87;4.33;;;19.60;61.20;;;;;;5035646;28;20184;-68
2022/11/30 08:08:50;;;;;;;18.80;3.63;;;19.50;61.90;;;;;;5035073;28;20598;-68
2022/11/30 08:11:21;;;;;;;13.10;3.37;;;19.60;61.70;;;;;;5075180;28;20180;-70
2022/11/30 08:13:49;;;;;;;13.00;3.73;;;19.50;62.20;;;;;;5047216;28;20187;-69
2022/11/30 08:16:19;;;;;;;18.53;4.13;;;19.50;61.80;;;;;;5041229;28;20543;-69
2022/11/30 08:18:47;;;;;;;12.97;3.43;;;19.50;62.30;;;;;;5051851;28;20184;-68
2022/11/30 08:21:18;;;;;;;13.77;3.83;;;19.40;62.50;;;;;;5043932;28;20199;-70
2022/11/30 08:23:48;;;;;;;17.90;3.97;;;19.50;62.80;;;;;;5043593;28;20192;-69
2022/11/30 08:26:21;;;;;;;19.30;3.57;;;19.40;62.60;;;;;;5050199;28;20242;-71
2022/11/30 08:28:50;;;;;;;19.43;3.70;;;19.20;62.50;;;;;;5053074;28;20271;-69
2022/11/30 08:31:21;;;;;;;16.07;3.63;;;19.20;62.50;;;;;;5045247;28;20189;-70
2022/11/30 08:33:49;;;;;;;12.10;2.90;;;19.20;62.60;;;;;;5042198;28;20176;-69
2022/11/30 08:36:19;;;;;;;19.83;3.67;;;19.10;63.40;;;;;;5045633;28;20674;-68
2022/11/30 08:38:47;;;;;;;19.13;3.97;;;19.20;63.90;;;;;;5042062;28;20173;-67
2022/11/30 08:41:18;;;;;;;18.47;3.30;;;19.10;63.50;;;;;;5039616;28;21921;-71
2022/11/30 08:43:46;;;;;;;18.07;4.00;;;19.00;63.80;;;;;;5049021;28;20184;-69
2022/11/30 08:46:17;;;;;;;15.10;3.43;;;19.10;64.00;;;;;;5033334;28;20177;-69
2022/11/30 08:48:45;;;;;;;16.53;3.60;;;19.00;64.20;;;;;;5041386;28;20227;-70
2022/11/30 08:51:14;;;;;;;14.63;3.00;;;19.00;64.50;;;;;;5042228;28;20189;-69
2022/11/30 08:53:42;;;;;;;18.43;4.00;;;19.00;64.80;;;;;;5040431;28;20168;-69
2022/11/30 08:56:19;;;;;;;15.40;3.80;;;19.00;65.00;;;;;;5038593;28;20181;-68
2022/11/30 08:58:47;;;;;;;17.60;3.77;;;19.00;65.10;;;;;;5047713;28;20271;-69
2022/11/30 09:01:20;;;;;;;20.40;3.93;;;18.90;65.10;;;;;;5043590;28;20719;-68
2022/11/30 09:03:50;;;;;;;19.80;3.73;;;19.00;65.70;;;;;;5048986;28;20194;-70
2022/11/30 09:06:23;;;;;;;16.40;3.73;;;19.00;65.30;;;;;;5032500;28;20869;-69
2022/11/30 09:08:52;;;;;;;20.07;4.43;;;19.00;65.30;;;;;;5047393;28;20187;-68
2022/11/30 09:11:25;;;;;;;14.10;3.43;;;18.90;65.10;;;;;;5031816;28;20172;-69
2022/11/30 09:13:58;;;;;;;16.93;3.47;;;18.90;65.10;;;;;;5041203;28;20176;-68
2022/11/30 09:16:26;;;;;;;20.83;3.87;;;18.90;65.50;;;;;;5039205;28;20180;-68
2022/11/30 09:18:53;;;;;;;18.03;3.73;;;18.90;65.90;;;;;;5036257;28;20216;-70
2022/11/30 09:21:23;;;;;;;19.07;3.70;;;18.80;65.90;;;;;;5045335;28;20290;-70
2022/11/30 09:23:51;;;;;;;18.43;3.70;;;18.80;65.90;;;;;;5039673;28;20223;-69
2022/11/30 09:26:22;;;;;;;18.23;3.70;;;18.80;66.00;;;;;;5046540;28;20180;-68
2022/11/30 09:28:50;;;;;;;14.93;3.37;;;18.90;65.90;;;;;;5045553;28;20187;-69
2022/11/30 09:31:23;;;;;;;16.70;3.33;;;18.80;65.70;;;;;;5035009;28;20279;-69
2022/11/30 09:33:52;;;;;;;17.33;3.43;;;18.80;66.10;;;;;;5033452;28;20180;-69
2022/11/30 09:36:21;;;;;;;21.20;4.37;;;18.80;66.60;;;;;;5045997;28;20192;-68
2022/11/30 09:38:49;;;;;;;9.60;2.90;;;18.80;66.60;;;;;;5045033;28;20176;-70
2022/11/30 09:41:25;;;;;;;16.70;3.30;;;18.80;66.70;;;;;;5039613;28;20208;-69
2022/11/30 09:44:10;;;;;;;17.27;3.77;;;18.80;66.40;;;;;;5040640;28;20263;-68
2022/11/30 09:46:54;;;;;;;18.20;3.70;;;18.70;66.10;;;;;;5036243;28;20192;-70
2022/11/30 09:49:35;;;;;;;12.23;3.13;;;18.70;66.20;;;;;;5035061;28;20176;-68
2022/11/30 09:52:05;;;;;;;16.23;3.70;;;18.70;66.30;;;;;;5034438;28;20183;-69
2022/11/30 09:54:39;;;;;;;18.40;3.70;;;18.70;66.10;;;;;;5042758;28;20188;-67
2022/11/30 09:57:37;;;;;;;19.30;4.47;;;18.70;66.30;;;;;;5039703;28;20251;-69
2022/11/30 10:00:13;;;;;;;10.87;3.50;;;18.70;66.30;;;;;;5044049;28;20185;-69
2022/11/30 10:02:41;;;;;;;17.97;3.83;;;18.70;66.70;;;;;;5044148;28;20203;-68
2022/11/30 10:05:18;;;;;;;22.27;3.90;;;18.70;66.80;;;;;;5032642;28;20191;-68
2022/11/30 10:08:11;;;;;;;10.63;3.10;;;18.80;66.60;;;;;;5044058;28;20190;-69
2022/11/30 10:10:45;;;;;;;19.43;3.33;;;18.80;66.50;;;;;;5043785;28;20238;-68
2022/11/30 10:13:19;;;;;;;14.63;3.40;;;18.70;65.90;;;;;;5036017;28;20661;-68
2022/11/30 10:15:49;;;;;;;20.03;3.57;;;18.70;65.80;;;;;;5044504;28;20180;-69
2022/11/30 10:18:51;;;;;;;15.67;3.27;;;18.80;66.10;;;;;;5037239;28;20188;-69
2022/11/30 10:21:45;;;;;;;18.97;3.87;;;18.80;66.60;;;;;;5036935;28;20581;-68
2022/11/30 10:24:29;;;;;;;22.50;3.90;;;18.80;66.50;;;;;;5047780;28;20654;-68
2022/11/30 10:26:57;;;;;;;18.40;3.47;;;18.70;66.30;;;;;;5048466;28;20184;-68
2022/11/30 10:29:27;;;;;;;17.60;3.50;;;18.70;66.70;;;;;;5045850;28;20191;-70
2022/11/30 10:32:00;;;;;;;19.53;3.30;;;18.70;66.50;;;;;;5033715;28;20208;-68
2022/11/30 10:34:35;;;;;;;15.70;3.27;;;18.80;66.80;;;;;;5041491;28;20187;-68
2022/11/30 10:37:11;;;;;;;16.27;3.40;;;18.70;66.50;;;;;;5034469;28;20259;-68
2022/11/30 10:39:55;;;;;;;15.40;3.10;;;18.80;66.70;;;;;;5047558;28;20180;-69
2022/11/30 10:42:34;;;;;;;19.20;3.23;;;18.80;67.00;;;;;;5035831;28;20223;-68
2022/11/30 10:45:16;;;;;;;19.50;3.20;;;18.70;67.10;;;;;;5050273;28;20628;-69
2022/11/30 10:47:51;;;;;;;16.63;3.93;;;18.80;66.80;;;;;;5034719;28;20270;-68
2022/11/30 10:50:20;;;;;;;21.63;3.40;;;18.70;66.90;;;;;;5045489;28;20183;-68
2022/11/30 10:52:56;;;;;;;21.23;4.13;;;18.70;67.20;;;;;;5044593;28;20212;-69
2022/11/30 10:55:29;;;;;;;16.83;3.50;;;18.70;67.50;;;;;;5032578;28;20269;-69
2022/11/30 10:58:20;;;;;;;14.43;3.23;;;18.70;67.80;;;;;;5041327;28;20226;-68
2022/11/30 11:01:04;;;;;;;16.60;3.23;;;18.60;68.00;;;;;;5037240;28;20193;-68
2022/11/30 11:03:32;;;;;;;15.80;3.50;;;18.60;68.30;;;;;;5039629;28;20196;-68
2022/11/30 11:06:24;;;;;;;19.37;3.83;;;18.60;68.10;;;;;;5032019;28;20186;-69
2022/11/30 11:08:51;;;;;;;19.97;4.10;;;18.60;68.40;;;;;;5044358;28;20193;-68
2022/11/30 11:11:38;;;;;;;21.77;3.83;;;18.70;67.80;;;;;;5034053;28;20545;-68
2022/11/30 11:14:20;;;;;;;19.33;3.70;;;18.70;67.60;;;;;;5044161;28;20207;-68
2022/11/30 11:17:02;;;;;;;15.70;3.60;;;18.70;67.30;;;;;;5042599;28;20184;-68
2022/11/30 11:19:36;;;;;;;15.90;3.30;;;18.70;67.30;;;;;;5043765;28;20267;-68
2022/11/30 11:22:18;;;;;;;17.47;3.80;;;18.70;67.60;;;;;;5032946;28;20211;-69
2022/11/30 11:24:47;;;;;;;16.73;3.63;;;18.70;67.20;;;;;;5032090;28;20268;-68
2022/11/30 11:27:32;;;;;;;15.07;3.60;;;18.80;67.10;;;;;;5045048;28;20220;-68
2022/11/30 11:30:14;;;;;;;21.53;3.60;;;18.70;66.90;;;;;;5039163;28;20176;-68
2022/11/30 11:32:56;;;;;;;19.97;4.30;;;18.60;66.80;;;;;;5047965;28;20184;-68
2022/11/30 11:35:45;;;;;;;16.10;3.83;;;18.70;66.80;;;;;;5048157;28;20180;-68
2022/11/30 11:38:21;;;;;;;14.60;3.30;;;18.60;66.60;;;;;;5041710;28;20176;-68
2022/11/30 11:40:52;;;;;;;19.57;3.63;;;18.60;66.60;;;;;;5050579;28;20206;-68
2022/11/30 11:43:20;;;;;;;15.93;3.07;;;18.70;66.70;;;;;;5034482;28;20215;-68
2022/11/30 11:45:53;;;;;;;14.33;3.07;;;18.70;66.50;;;;;;5036092;28;20207;-67
2022/11/30 11:48:32;;;;;;;12.40;3.10;;;18.70;66.30;;;;;;5045548;28;20227;-68
2022/11/30 11:51:08;;;;;;;17.97;3.87;;;18.70;65.80;;;;;;5042993;28;20226;-68
2022/11/30 11:53:47;;;;;;;25.40;4.03;;;18.60;65.40;;;;;;5036286;28;20646;-67
2022/11/30 11:56:21;;;;;;;16.83;3.77;;;18.60;65.30;;;;;;5035589;28;20622;-67
2022/11/30 11:58:58;;;;;;;13.00;2.87;;;18.70;65.30;;;;;;5040426;28;20207;-67
2022/11/30 12:01:51;;;;;;;16.63;3.20;;;18.70;65.40;;;;;;5036013;28;20265;-67
2022/11/30 12:04:44;;;;;;;13.13;3.17;;;18.60;65.10;;;;;;5041744;28;20526;-67
2022/11/30 12:07:52;;;;;;;13.20;3.20;;;18.70;64.80;;;;;;5049356;28;20172;-67
2022/11/30 12:10:28;;;;;;;15.23;3.40;;;18.70;64.40;;;;;;5041905;28;20184;-67
2022/11/30 12:12:57;;;;;;;14.03;3.40;;;18.60;64.50;;;;;;5034848;28;20259;-67
2022/11/30 12:16:03;;;;;;;16.13;3.07;;;18.60;64.10;;;;;;5038479;28;20266;-67
2022/11/30 12:18:55;;;;;;;17.77;3.30;;;18.60;64.10;;;;;;5042667;28;20642;-67
2022/11/30 12:21:45;;;;;;;11.60;2.90;;;18.70;64.40;;;;;;5038849;28;20200;-68
2022/11/30 12:25:02;;;;;;;16.43;3.77;;;18.70;64.50;;;;;;5035489;28;20551;-67
2022/11/30 12:27:48;;;;;;;13.17;3.27;;;18.70;64.50;;;;;;5047315;28;20647;-68
2022/11/30 12:30:36;;;;;;;10.23;3.07;;;18.60;64.40;;;;;;5048826;28;20267;-68
2022/11/30 12:33:08;;;;;;;12.87;2.90;;;18.70;64.50;;;;;;5046968;28;20557;-67
2022/11/30 12:35:51;;;;;;;15.77;3.60;;;18.70;64.40;;;;;;5047605;28;20258;-69
2022/11/30 12:38:39;;;;;;;16.27;3.37;;;18.70;64.20;;;;;;5037759;28;20655;-67
2022/11/30 12:41:35;;;;;;;17.17;3.57;;;18.70;64.60;;;;;;5049481;28;20183;-68
2022/11/30 12:44:29;;;;;;;13.97;3.47;;;18.70;64.50;;;;;;5049345;28;20176;-68
2022/11/30 12:47:19;;;;;;;12.23;3.33;;;18.70;64.40;;;;;;5035270;28;20643;-68
2022/11/30 12:50:07;;;;;;;20.17;3.33;;;18.70;64.50;;;;;;5034554;28;20184;-69
2022/11/30 12:53:10;;;;;;;11.57;2.63;;;18.70;64.80;;;;;;5035099;28;20255;-67
2022/11/30 12:56:13;;;;;;;13.67;2.90;;;18.70;65.10;;;;;;5034736;28;20183;-68
2022/11/30 12:58:55;;;;;;;17.73;3.77;;;18.70;65.20;;;;;;5039877;28;20187;-69
2022/11/30 13:01:41;;;;;;;12.03;2.90;;;18.70;65.10;;;;;;5036131;28;20195;-68
2022/11/30 13:04:27;;;;;;;18.20;2.80;;;18.70;65.20;;;;;;5042174;28;20215;-68
2022/11/30 13:06:54;;;;;;;19.10;3.50;;;18.70;65.30;;;;;;5034496;28;20168;-68